Time;durP1;ratioP1;P1;durP2;ratioP2;P2;SDS_P1;SDS_P2;PMS_P1;PMS_P2;Temp;Humidity;BMP_temperature;BMP_pressure;BME280_temperature;BME280_humidity;BME280_pressure;Samples;Min_cycle;Max_cycle;Signal;HPM_P1;HPM_P2
2021/03/12 00:01:56;;;;;;;9.30;2.73;;;6.00;98.30;;;;;;5150835;23;20459;-79
2021/03/12 00:03:58;;;;;;;4.70;2.27;;;6.00;98.30;;;;;;5150538;23;20446;-80
2021/03/12 00:06:07;;;;;;;5.47;2.70;;;6.00;98.30;;;;;;5142532;23;20459;-80
2021/03/12 00:08:11;;;;;;;7.10;2.20;;;6.00;98.30;;;;;;5149945;23;20530;-79
2021/03/12 00:10:16;;;;;;;4.57;2.80;;;6.10;98.30;;;;;;5150722;23;20529;-79
2021/03/12 00:12:18;;;;;;;5.67;2.30;;;6.10;98.30;;;;;;5149636;23;20490;-79
2021/03/12 00:14:21;;;;;;;5.73;2.90;;;6.10;98.30;;;;;;5149895;23;20508;-79
2021/03/12 00:16:23;;;;;;;4.97;2.70;;;6.10;98.30;;;;;;5149865;23;20550;-80
2021/03/12 00:18:29;;;;;;;6.13;3.13;;;6.10;98.30;;;;;;5149571;23;20517;-80
2021/03/12 00:20:36;;;;;;;5.30;2.87;;;6.20;98.30;;;;;;5149078;23;20457;-79
2021/03/12 00:22:38;;;;;;;6.40;2.90;;;6.10;98.30;;;;;;5141407;23;20454;-79
2021/03/12 00:24:41;;;;;;;5.03;2.90;;;6.10;98.30;;;;;;5149360;23;20500;-80
2021/03/12 00:26:43;;;;;;;8.30;3.63;;;6.10;98.30;;;;;;5140024;23;20536;-79
2021/03/12 00:28:45;;;;;;;5.73;3.70;;;6.10;98.30;;;;;;5140596;23;20488;-79
2021/03/12 00:30:48;;;;;;;8.17;3.10;;;6.10;98.30;;;;;;5148655;23;20828;-79
2021/03/12 00:32:50;;;;;;;8.00;3.47;;;6.00;98.30;;;;;;5150054;23;20452;-79
2021/03/12 00:34:52;;;;;;;4.63;2.83;;;6.10;98.30;;;;;;5149160;23;20958;-79
2021/03/12 00:36:54;;;;;;;8.30;3.33;;;6.00;98.30;;;;;;5148701;23;20524;-80
2021/03/12 00:38:56;;;;;;;6.33;3.23;;;6.10;98.30;;;;;;5149242;23;20450;-79
2021/03/12 00:41:02;;;;;;;3.97;2.67;;;6.10;98.30;;;;;;5149072;23;21237;-78
2021/03/12 00:43:04;;;;;;;3.20;2.47;;;6.10;98.30;;;;;;5141301;23;20459;-78
2021/03/12 00:45:08;;;;;;;5.27;2.80;;;6.10;98.30;;;;;;5149015;23;20515;-79
2021/03/12 00:47:10;;;;;;;5.23;2.90;;;6.10;98.30;;;;;;5149199;23;20560;-78
2021/03/12 00:49:13;;;;;;;7.00;2.90;;;6.10;98.30;;;;;;5148688;23;20450;-79
2021/03/12 00:51:15;;;;;;;5.50;3.17;;;6.10;98.30;;;;;;5148722;23;20426;-81
2021/03/12 00:53:17;;;;;;;3.80;3.27;;;6.10;98.30;;;;;;5140725;23;20531;-80
2021/03/12 00:55:19;;;;;;;6.67;3.17;;;6.10;98.30;;;;;;5152161;23;20447;-80
2021/03/12 00:57:22;;;;;;;5.43;3.23;;;6.10;98.30;;;;;;5143529;23;20538;-80
2021/03/12 00:59:24;;;;;;;5.70;2.90;;;6.10;98.30;;;;;;5151852;23;20455;-79
2021/03/12 01:01:26;;;;;;;11.30;3.10;;;6.10;98.30;;;;;;5152507;23;20455;-79
2021/03/12 01:03:28;;;;;;;8.70;2.70;;;6.10;98.30;;;;;;5152313;23;20457;-80
2021/03/12 01:05:30;;;;;;;6.80;3.17;;;6.10;98.30;;;;;;5151721;23;20449;-79
2021/03/12 01:07:32;;;;;;;5.80;3.00;;;6.10;98.30;;;;;;5151406;23;20538;-79
2021/03/12 01:09:34;;;;;;;9.77;3.20;;;6.10;98.30;;;;;;5151925;23;20816;-80
2021/03/12 01:11:37;;;;;;;4.40;3.03;;;6.10;98.30;;;;;;5143254;23;20492;-80
2021/03/12 01:13:40;;;;;;;10.10;2.97;;;6.10;98.30;;;;;;5149971;23;20452;-79
2021/03/12 01:15:42;;;;;;;4.00;2.40;;;6.10;98.30;;;;;;5149549;23;20461;-78
2021/03/12 01:17:44;;;;;;;6.43;3.03;;;6.10;98.30;;;;;;5141429;23;20498;-80
2021/03/12 01:19:47;;;;;;;6.60;3.10;;;6.10;98.30;;;;;;5149392;23;20422;-79
2021/03/12 01:21:48;;;;;;;4.47;3.10;;;6.10;98.30;;;;;;5149810;23;20464;-79
2021/03/12 01:23:51;;;;;;;5.27;2.97;;;6.10;98.30;;;;;;5150013;23;20456;-79
2021/03/12 01:25:53;;;;;;;7.60;3.03;;;6.10;98.30;;;;;;5149239;23;20451;-79
2021/03/12 01:27:55;;;;;;;5.73;2.60;;;6.10;98.30;;;;;;5141247;23;20456;-79
2021/03/12 01:29:58;;;;;;;5.60;2.80;;;6.10;98.30;;;;;;5141484;23;20461;-80
2021/03/12 01:32:00;;;;;;;6.30;2.90;;;6.10;98.30;;;;;;5141499;23;20491;-79
2021/03/12 01:34:02;;;;;;;6.53;2.60;;;6.20;98.30;;;;;;5149932;23;20456;-79
2021/03/12 01:36:05;;;;;;;8.23;2.80;;;6.20;98.30;;;;;;5149538;23;20448;-79
2021/03/12 01:38:08;;;;;;;6.23;2.60;;;6.20;98.30;;;;;;5141489;23;20478;-80
2021/03/12 01:40:13;;;;;;;3.87;2.63;;;6.10;98.30;;;;;;5149071;23;20824;-79
2021/03/12 01:42:24;;;;;;;4.83;2.30;;;6.10;98.30;;;;;;5149578;23;20511;-80
2021/03/12 01:44:27;;;;;;;4.53;2.50;;;6.10;98.30;;;;;;5149476;23;20458;-80
2021/03/12 01:46:30;;;;;;;9.40;2.67;;;6.10;98.30;;;;;;5149156;23;20800;-79
2021/03/12 01:48:32;;;;;;;3.50;2.67;;;6.10;98.30;;;;;;5142740;23;20966;-80
2021/03/12 01:50:35;;;;;;;5.30;2.50;;;6.10;98.30;;;;;;5150412;23;20450;-79
2021/03/12 01:52:37;;;;;;;5.23;2.50;;;6.10;98.30;;;;;;5141736;23;20532;-79
2021/03/12 01:54:39;;;;;;;5.50;2.70;;;6.00;98.30;;;;;;5150274;23;20449;-79
2021/03/12 01:56:41;;;;;;;4.13;2.30;;;6.10;98.30;;;;;;5149410;23;20473;-80
2021/03/12 01:58:44;;;;;;;4.27;2.40;;;6.00;98.30;;;;;;5149960;23;20546;-79
2021/03/12 02:00:47;;;;;;;7.27;2.90;;;6.00;98.30;;;;;;5149380;23;20452;-80
2021/03/12 02:02:50;;;;;;;6.67;2.90;;;6.00;98.30;;;;;;5142169;23;20523;-79
2021/03/12 02:04:52;;;;;;;6.80;2.53;;;6.10;98.30;;;;;;5149237;23;20488;-79
2021/03/12 02:06:54;;;;;;;4.43;2.50;;;6.10;98.30;;;;;;5148639;23;20475;-79
2021/03/12 02:08:56;;;;;;;4.50;2.60;;;6.10;98.30;;;;;;5140431;23;20542;-79
2021/03/12 02:10:59;;;;;;;4.10;2.20;;;6.10;98.30;;;;;;5140791;23;20856;-79
2021/03/12 02:13:08;;;;;;;9.13;3.00;;;6.10;98.30;;;;;;5148758;23;20448;-79
2021/03/12 02:15:15;;;;;;;7.43;2.57;;;6.00;98.30;;;;;;5149796;23;20456;-79
2021/03/12 02:17:27;;;;;;;6.07;2.40;;;6.00;98.30;;;;;;5148803;23;20523;-80
2021/03/12 02:20:01;;;;;;;7.43;4.47;;;6.00;98.30;;;;;;5149672;23;20451;-79
2021/03/12 02:22:04;;;;;;;6.63;3.10;;;6.00;98.30;;;;;;5148711;23;20457;-80
2021/03/12 02:24:12;;;;;;;5.37;3.13;;;6.00;98.30;;;;;;5149387;23;20525;-80
2021/03/12 02:26:24;;;;;;;11.63;5.53;;;6.00;98.30;;;;;;5151595;23;20868;-79
2021/03/12 02:28:28;;;;;;;6.90;3.10;;;6.00;98.30;;;;;;5150228;23;20439;-79
2021/03/12 02:30:31;;;;;;;7.50;3.20;;;6.00;98.30;;;;;;5150040;23;20458;-79
2021/03/12 02:32:36;;;;;;;7.93;4.00;;;6.10;98.30;;;;;;5150557;23;20450;-79
2021/03/12 02:34:42;;;;;;;7.10;3.30;;;6.10;98.30;;;;;;5150913;23;20443;-80
2021/03/12 02:36:48;;;;;;;7.57;3.30;;;6.10;98.30;;;;;;5151029;23;20438;-79
2021/03/12 02:38:51;;;;;;;3.20;3.00;;;6.10;98.30;;;;;;5149723;23;20547;-80
2021/03/12 02:40:54;;;;;;;13.40;3.60;;;6.20;98.30;;;;;;5150756;23;21350;-79
2021/03/12 02:43:08;;;;;;;7.03;3.73;;;6.20;98.30;;;;;;5150079;23;20442;-79
2021/03/12 02:45:16;;;;;;;8.53;3.23;;;6.20;98.30;;;;;;5150882;23;20482;-79
2021/03/12 02:47:22;;;;;;;7.33;3.20;;;6.20;98.30;;;;;;5149993;23;20780;-79
2021/03/12 02:49:25;;;;;;;4.57;3.73;;;6.20;98.30;;;;;;5149593;23;20533;-79
2021/03/12 02:51:28;;;;;;;7.63;3.70;;;6.20;98.30;;;;;;5150605;23;20477;-79
2021/03/12 02:53:30;;;;;;;9.70;3.83;;;6.20;98.30;;;;;;5141042;23;20456;-80
2021/03/12 02:55:33;;;;;;;10.13;4.47;;;6.20;98.30;;;;;;5148519;23;20830;-79
2021/03/12 02:57:35;;;;;;;6.73;3.93;;;6.20;98.30;;;;;;5148304;23;20444;-80
2021/03/12 02:59:38;;;;;;;11.03;3.93;;;6.20;98.30;;;;;;5147960;23;20531;-79
2021/03/12 03:01:41;;;;;;;10.03;4.43;;;6.20;98.30;;;;;;5148473;23;20477;-78
2021/03/12 03:03:43;;;;;;;12.20;4.00;;;6.20;98.30;;;;;;5148716;23;20478;-79
2021/03/12 03:05:46;;;;;;;5.77;3.57;;;6.20;98.30;;;;;;5148903;23;20448;-79
2021/03/12 03:07:49;;;;;;;6.73;3.23;;;6.20;98.30;;;;;;5148381;23;20746;-79
2021/03/12 03:09:52;;;;;;;7.73;3.80;;;6.20;98.30;;;;;;5148097;23;20453;-78
2021/03/12 03:11:56;;;;;;;11.30;3.50;;;6.20;98.30;;;;;;5148873;23;20565;-79
2021/03/12 03:13:58;;;;;;;10.23;3.70;;;6.20;98.30;;;;;;5148047;23;20977;-79
2021/03/12 03:16:01;;;;;;;10.97;3.70;;;6.20;98.30;;;;;;5140076;23;20454;-78
2021/03/12 03:18:06;;;;;;;12.80;3.67;;;6.20;98.30;;;;;;5140188;23;20530;-79
2021/03/12 03:20:11;;;;;;;10.10;3.90;;;6.20;98.30;;;;;;5148129;23;21221;-79
2021/03/12 03:22:16;;;;;;;13.13;4.50;;;6.30;98.30;;;;;;5140179;23;20474;-79
2021/03/12 03:24:18;;;;;;;7.57;3.63;;;6.20;98.30;;;;;;5147910;23;20451;-79
2021/03/12 03:26:20;;;;;;;6.73;3.60;;;6.20;98.30;;;;;;5148461;23;20444;-79
2021/03/12 03:28:23;;;;;;;7.63;4.00;;;6.30;98.30;;;;;;5140376;23;20780;-79
2021/03/12 03:30:25;;;;;;;10.97;4.47;;;6.30;98.30;;;;;;5148238;23;20459;-79
2021/03/12 03:32:27;;;;;;;11.27;4.20;;;6.30;98.30;;;;;;5148937;23;20458;-80
2021/03/12 03:34:30;;;;;;;8.90;4.03;;;6.30;98.30;;;;;;5142290;23;20459;-80
2021/03/12 03:36:32;;;;;;;5.40;3.87;;;6.30;98.30;;;;;;5142041;23;20489;-79
2021/03/12 03:38:34;;;;;;;20.93;4.60;;;6.30;98.30;;;;;;5150639;23;20457;-79
2021/03/12 03:40:37;;;;;;;9.67;4.43;;;6.30;98.30;;;;;;5150227;23;20477;-79
2021/03/12 03:42:41;;;;;;;11.20;4.20;;;6.30;98.30;;;;;;5149358;23;20840;-79
2021/03/12 03:44:46;;;;;;;10.40;4.47;;;6.40;98.30;;;;;;5148914;23;21053;-79
2021/03/12 03:46:49;;;;;;;8.73;4.20;;;6.30;98.30;;;;;;5150112;23;20463;-79
2021/03/12 03:48:52;;;;;;;6.00;3.70;;;6.40;98.30;;;;;;5149477;23;20534;-79
2021/03/12 03:50:56;;;;;;;10.23;3.70;;;6.40;98.30;;;;;;5148956;23;20550;-79
2021/03/12 03:52:58;;;;;;;7.23;4.80;;;6.40;98.30;;;;;;5149842;23;20542;-79
2021/03/12 03:55:01;;;;;;;12.33;4.57;;;6.40;98.30;;;;;;5149645;23;21008;-79
2021/03/12 03:57:05;;;;;;;13.20;3.90;;;6.40;98.30;;;;;;5149842;23;20768;-80
2021/03/12 03:59:08;;;;;;;9.77;4.00;;;6.40;98.30;;;;;;5149483;23;20452;-79
2021/03/12 04:01:13;;;;;;;12.43;6.30;;;6.40;98.30;;;;;;5141158;23;20749;-79
2021/03/12 04:03:15;;;;;;;8.60;4.60;;;6.40;98.30;;;;;;5149907;23;20446;-79
2021/03/12 04:05:19;;;;;;;11.60;4.90;;;6.40;98.30;;;;;;5149454;23;20466;-79
2021/03/12 04:07:22;;;;;;;14.03;5.60;;;6.40;98.30;;;;;;5149679;23;20462;-79
2021/03/12 04:09:24;;;;;;;9.00;4.60;;;6.40;98.30;;;;;;5141095;23;20487;-79
2021/03/12 04:11:29;;;;;;;9.37;4.53;;;6.40;98.30;;;;;;5142986;23;21058;-79
2021/03/12 04:13:31;;;;;;;8.30;3.70;;;6.50;98.30;;;;;;5151853;23;20502;-79
2021/03/12 04:15:35;;;;;;;7.10;4.63;;;6.50;98.30;;;;;;5151681;23;20434;-78
2021/03/12 04:17:38;;;;;;;9.80;4.30;;;6.50;98.30;;;;;;5149915;23;20539;-79
2021/03/12 04:19:40;;;;;;;11.63;4.80;;;6.40;98.30;;;;;;5149841;23;20449;-79
2021/03/12 04:21:43;;;;;;;10.03;3.70;;;6.50;98.30;;;;;;5150344;23;20462;-79
2021/03/12 04:23:46;;;;;;;12.40;4.57;;;6.50;98.30;;;;;;5150281;23;20453;-79
2021/03/12 04:25:49;;;;;;;11.70;3.47;;;6.50;98.30;;;;;;5142270;23;20487;-80
2021/03/12 04:27:51;;;;;;;15.73;4.60;;;6.50;98.30;;;;;;5142893;23;20509;-79
2021/03/12 04:29:54;;;;;;;8.97;4.73;;;6.50;98.30;;;;;;5141983;23;20452;-79
2021/03/12 04:31:56;;;;;;;16.77;7.73;;;6.50;98.30;;;;;;5142831;23;20452;-79
2021/03/12 04:33:59;;;;;;;4.73;3.60;;;6.50;98.30;;;;;;5143135;23;20478;-79
2021/03/12 04:36:01;;;;;;;11.40;4.37;;;6.50;98.30;;;;;;5150327;23;20454;-79
2021/03/12 04:38:06;;;;;;;7.93;3.80;;;6.50;98.30;;;;;;5150764;23;20475;-79
2021/03/12 04:40:11;;;;;;;13.13;4.53;;;6.40;98.30;;;;;;5151008;23;20475;-79
2021/03/12 04:42:13;;;;;;;6.30;3.87;;;6.40;98.30;;;;;;5150514;23;20948;-79
2021/03/12 04:44:32;;;;;;;7.50;3.87;;;6.40;98.30;;;;;;5151026;23;20454;-79
2021/03/12 04:46:36;;;;;;;11.20;4.17;;;6.40;98.30;;;;;;5152556;23;20450;-79
2021/03/12 04:48:41;;;;;;;9.63;3.33;;;6.40;98.30;;;;;;5151952;23;20461;-79
2021/03/12 04:50:44;;;;;;;8.33;4.17;;;6.40;98.30;;;;;;5153413;23;20452;-79
2021/03/12 04:52:46;;;;;;;9.53;4.00;;;6.40;98.30;;;;;;5153168;23;20514;-79
2021/03/12 04:54:49;;;;;;;10.60;6.10;;;6.40;98.30;;;;;;5155150;23;20444;-80
2021/03/12 04:56:53;;;;;;;13.60;6.93;;;6.40;98.30;;;;;;5155050;23;20451;-79
2021/03/12 04:58:56;;;;;;;11.87;4.20;;;6.40;98.30;;;;;;5154703;23;20440;-79
2021/03/12 05:00:59;;;;;;;10.10;3.90;;;6.40;98.30;;;;;;5146109;23;20534;-79
2021/03/12 05:03:01;;;;;;;8.50;3.80;;;6.40;98.30;;;;;;5153224;23;20447;-80
2021/03/12 05:05:05;;;;;;;11.03;4.10;;;6.40;98.30;;;;;;5151152;23;20483;-79
2021/03/12 05:07:09;;;;;;;8.97;3.87;;;6.40;98.30;;;;;;5151272;23;20423;-80
2021/03/12 05:09:12;;;;;;;15.63;4.10;;;6.40;98.30;;;;;;5152024;23;20448;-79
2021/03/12 05:11:15;;;;;;;8.10;4.17;;;6.40;98.30;;;;;;5151002;23;20953;-79
2021/03/12 05:13:18;;;;;;;9.17;3.57;;;6.40;98.30;;;;;;5152934;23;20459;-80
2021/03/12 05:15:22;;;;;;;9.57;4.50;;;6.40;98.30;;;;;;5152927;23;20509;-80
2021/03/12 05:17:25;;;;;;;15.80;4.53;;;6.40;98.30;;;;;;5143459;23;20768;-79
2021/03/12 05:19:28;;;;;;;9.27;3.97;;;6.40;98.30;;;;;;5151947;23;20452;-79
2021/03/12 05:21:30;;;;;;;10.00;4.33;;;6.40;98.30;;;;;;5151366;23;20459;-79
2021/03/12 05:23:33;;;;;;;12.63;4.47;;;6.40;98.30;;;;;;5151323;23;20454;-80
2021/03/12 05:25:35;;;;;;;7.33;3.77;;;6.40;98.30;;;;;;5151232;23;20469;-80
2021/03/12 05:27:40;;;;;;;5.47;3.33;;;6.40;98.30;;;;;;5142707;23;20520;-80
2021/03/12 05:29:43;;;;;;;7.53;3.53;;;6.30;98.30;;;;;;5151722;23;20586;-79
2021/03/12 05:31:45;;;;;;;11.23;3.90;;;6.30;98.30;;;;;;5150856;23;20448;-80
2021/03/12 05:33:48;;;;;;;6.00;3.27;;;6.30;98.30;;;;;;5149576;23;20457;-79
2021/03/12 05:35:50;;;;;;;9.50;3.80;;;6.30;98.30;;;;;;5148257;23;20541;-79
2021/03/12 05:37:53;;;;;;;7.17;3.33;;;6.30;98.30;;;;;;5148226;23;20457;-79
2021/03/12 05:39:55;;;;;;;14.30;4.70;;;6.30;98.30;;;;;;5148956;23;20491;-79
2021/03/12 05:41:57;;;;;;;8.63;4.40;;;6.20;98.30;;;;;;5148823;23;20490;-79
2021/03/12 05:44:03;;;;;;;17.70;4.87;;;6.20;98.30;;;;;;5149061;23;20495;-80
2021/03/12 05:46:06;;;;;;;6.90;3.93;;;6.30;98.30;;;;;;5149554;23;20477;-79
2021/03/12 05:48:09;;;;;;;9.17;3.97;;;6.20;98.30;;;;;;5140659;23;20485;-78
2021/03/12 05:50:13;;;;;;;14.40;6.43;;;6.20;98.30;;;;;;5148618;23;20522;-79
2021/03/12 05:52:16;;;;;;;8.57;3.70;;;6.20;98.30;;;;;;5148766;23;20530;-79
2021/03/12 05:54:18;;;;;;;7.17;3.33;;;6.20;98.30;;;;;;5141026;23;20491;-80
2021/03/12 05:56:20;;;;;;;5.77;3.57;;;6.20;98.30;;;;;;5149223;23;20841;-79
2021/03/12 05:58:23;;;;;;;10.60;4.50;;;6.20;98.30;;;;;;5140284;23;20458;-79
2021/03/12 06:00:27;;;;;;;10.20;3.90;;;6.20;98.30;;;;;;5147904;23;20489;-79
2021/03/12 06:02:30;;;;;;;5.60;3.40;;;6.20;98.30;;;;;;5148601;23;20446;-79
2021/03/12 06:04:32;;;;;;;7.90;3.67;;;6.20;98.30;;;;;;5139952;23;20448;-79
2021/03/12 06:06:36;;;;;;;13.93;4.60;;;6.30;98.30;;;;;;5140166;23;20505;-79
2021/03/12 06:08:38;;;;;;;9.87;4.33;;;6.20;98.30;;;;;;5148333;23;20458;-80
2021/03/12 06:10:41;;;;;;;20.50;5.00;;;6.30;98.30;;;;;;5139856;23;20488;-80
2021/03/12 06:12:43;;;;;;;10.50;4.80;;;6.30;98.30;;;;;;5140255;23;20455;-79
2021/03/12 06:14:53;;;;;;;9.63;6.13;;;6.20;98.30;;;;;;5140706;23;20494;-80
2021/03/12 06:16:55;;;;;;;9.67;4.20;;;6.20;98.30;;;;;;5142016;23;20476;-79
2021/03/12 06:19:15;;;;;;;14.33;4.57;;;6.20;98.30;;;;;;5149871;23;20451;-80
2021/03/12 06:21:27;;;;;;;12.87;3.90;;;6.20;98.30;;;;;;5140153;23;20458;-79
2021/03/12 06:23:33;;;;;;;11.33;4.47;;;6.10;98.30;;;;;;5148924;23;20474;-79
2021/03/12 06:25:36;;;;;;;48.00;23.30;;;6.10;98.30;;;;;;5149388;23;20453;-79
2021/03/12 06:27:39;;;;;;;17.10;4.20;;;6.10;98.30;;;;;;5148844;23;20493;-79
2021/03/12 06:29:41;;;;;;;8.23;3.87;;;6.20;98.30;;;;;;5148799;23;20525;-79
2021/03/12 06:31:50;;;;;;;9.03;4.70;;;6.10;98.30;;;;;;5150005;23;20526;-79
2021/03/12 06:34:07;;;;;;;9.03;3.40;;;6.10;98.30;;;;;;5150699;23;20515;-80
2021/03/12 06:36:28;;;;;;;12.20;4.23;;;6.10;98.30;;;;;;5153851;23;20451;-80
2021/03/12 06:38:30;;;;;;;11.17;4.60;;;6.10;98.30;;;;;;5147062;23;20455;-80
2021/03/12 06:40:33;;;;;;;12.00;4.30;;;6.10;98.30;;;;;;5146686;23;20452;-80
2021/03/12 06:42:35;;;;;;;8.77;3.83;;;6.20;98.30;;;;;;5154630;23;20501;-79
2021/03/12 06:44:37;;;;;;;11.07;3.80;;;6.20;98.30;;;;;;5153109;23;20772;-80
2021/03/12 06:46:45;;;;;;;13.10;4.20;;;6.20;98.30;;;;;;5152716;23;20525;-80
2021/03/12 06:49:00;;;;;;;13.90;4.90;;;6.20;98.30;;;;;;5151085;23;20783;-79
2021/03/12 06:51:05;;;;;;;14.60;5.60;;;6.10;98.30;;;;;;5141442;23;20517;-79
2021/03/12 06:53:23;;;;;;;10.03;5.23;;;6.10;98.30;;;;;;5140673;23;20466;-79
2021/03/12 06:55:25;;;;;;;12.20;4.13;;;6.10;98.30;;;;;;5149361;23;20454;-80
2021/03/12 06:57:27;;;;;;;7.53;3.10;;;6.20;98.30;;;;;;5139311;23;20506;-75
2021/03/12 06:59:30;;;;;;;8.33;3.70;;;6.40;98.30;;;;;;5139264;23;20460;-78
2021/03/12 07:01:32;;;;;;;10.60;4.00;;;6.50;98.30;;;;;;5147104;23;20448;-78
2021/03/12 07:03:34;;;;;;;9.10;4.70;;;6.50;98.30;;;;;;5139825;23;20456;-78
2021/03/12 07:05:57;;;;;;;10.33;4.40;;;6.40;98.30;;;;;;5143439;23;20555;-80
2021/03/12 07:07:59;;;;;;;14.73;4.40;;;6.30;98.30;;;;;;5153097;23;20459;-79
2021/03/12 07:10:04;;;;;;;7.67;4.27;;;6.20;98.30;;;;;;5145099;23;20480;-81
2021/03/12 07:12:06;;;;;;;10.90;4.20;;;6.20;98.30;;;;;;5144727;23;20463;-80
2021/03/12 07:14:09;;;;;;;9.80;4.00;;;6.30;98.30;;;;;;5152794;23;20452;-80
2021/03/12 07:16:30;;;;;;;10.20;4.30;;;6.30;98.30;;;;;;5154679;23;20491;-80
2021/03/12 07:18:32;;;;;;;5.50;3.70;;;6.20;98.30;;;;;;5145219;23;20792;-80
2021/03/12 07:20:35;;;;;;;14.80;5.10;;;6.20;98.30;;;;;;5152675;23;20486;-80
2021/03/12 07:22:39;;;;;;;8.67;3.90;;;6.10;98.30;;;;;;5154400;23;20479;-80
2021/03/12 07:24:41;;;;;;;10.17;4.57;;;6.20;98.30;;;;;;5154812;23;20501;-81
2021/03/12 07:26:48;;;;;;;5.80;3.90;;;6.30;98.30;;;;;;5154914;23;20448;-81
2021/03/12 07:28:57;;;;;;;8.53;4.17;;;6.30;98.30;;;;;;5153528;23;20451;-81
2021/03/12 07:31:03;;;;;;;12.50;4.70;;;6.20;98.30;;;;;;5152986;23;20506;-80
2021/03/12 07:33:05;;;;;;;9.60;4.07;;;6.20;98.30;;;;;;5145842;23;20970;-80
2021/03/12 07:35:09;;;;;;;15.03;5.17;;;6.30;98.30;;;;;;5150682;23;20456;-81
2021/03/12 07:37:11;;;;;;;12.00;4.73;;;6.30;98.30;;;;;;5153316;23;20954;-81
2021/03/12 07:39:28;;;;;;;7.60;3.90;;;6.30;98.30;;;;;;5144413;23;20461;-81
2021/03/12 07:41:30;;;;;;;9.30;3.40;;;6.30;98.30;;;;;;5154842;23;21389;-81
2021/03/12 07:43:39;;;;;;;6.73;3.60;;;6.30;98.30;;;;;;5153358;23;20448;-80
2021/03/12 07:45:42;;;;;;;13.23;4.23;;;6.30;98.30;;;;;;5151337;23;20443;-81
2021/03/12 07:47:47;;;;;;;11.13;5.00;;;6.30;98.30;;;;;;5152065;23;20453;-80
2021/03/12 07:49:49;;;;;;;8.30;4.17;;;6.30;98.30;;;;;;5142894;23;21049;-80
2021/03/12 07:51:53;;;;;;;5.17;3.23;;;6.30;98.30;;;;;;5150966;23;20488;-81
2021/03/12 07:53:57;;;;;;;5.80;3.17;;;6.30;98.30;;;;;;5152163;23;21084;-80
2021/03/12 07:55:58;;;;;;;9.53;3.77;;;6.30;98.30;;;;;;5154066;23;20473;-80
2021/03/12 07:58:00;;;;;;;15.13;3.70;;;6.30;98.30;;;;;;5152794;23;20456;-80
2021/03/12 08:00:05;;;;;;;8.50;4.30;;;6.30;98.30;;;;;;5144142;23;20483;-80
2021/03/12 08:02:08;;;;;;;14.80;4.90;;;6.30;98.30;;;;;;5144366;23;20454;-80
2021/03/12 08:04:27;;;;;;;10.63;4.10;;;6.30;98.30;;;;;;5145200;23;20463;-80
2021/03/12 08:06:34;;;;;;;7.70;3.50;;;6.40;98.30;;;;;;5153188;23;21037;-80
2021/03/12 08:08:38;;;;;;;5.33;3.40;;;6.40;98.30;;;;;;5153552;23;20793;-80
2021/03/12 08:10:40;;;;;;;10.93;3.40;;;6.40;98.30;;;;;;5153238;23;20512;-80
2021/03/12 08:12:42;;;;;;;7.23;3.17;;;6.30;98.30;;;;;;5153180;23;20453;-80
2021/03/12 08:15:10;;;;;;;4.33;3.90;;;6.30;98.30;;;;;;5153771;23;20444;-80
2021/03/12 08:17:20;;;;;;;7.40;3.47;;;6.30;98.30;;;;;;5152876;23;21050;-80
2021/03/12 08:19:29;;;;;;;9.17;4.40;;;6.40;98.30;;;;;;5152211;23;20442;-80
2021/03/12 08:21:35;;;;;;;8.47;2.80;;;6.50;98.30;;;;;;5153821;23;20450;-80
2021/03/12 08:23:38;;;;;;;8.60;3.83;;;6.40;98.30;;;;;;5154233;23;20448;-81
2021/03/12 08:25:50;;;;;;;9.33;3.03;;;6.40;98.30;;;;;;5147223;23;20538;-80
2021/03/12 08:27:52;;;;;;;12.53;3.80;;;6.50;98.30;;;;;;5154450;23;20444;-80
2021/03/12 08:29:54;;;;;;;8.60;3.23;;;6.50;98.30;;;;;;5148073;23;20431;-80
2021/03/12 08:31:57;;;;;;;10.10;2.70;;;6.50;98.30;;;;;;5155645;23;20516;-80
2021/03/12 08:34:36;;;;;;;8.00;3.23;;;6.60;98.30;;;;;;5154988;23;20532;-80
2021/03/12 08:36:38;;;;;;;9.50;3.23;;;6.70;98.30;;;;;;5155029;23;20452;-80
2021/03/12 08:38:44;;;;;;;6.50;3.20;;;6.70;98.30;;;;;;5146307;23;20475;-80
2021/03/12 08:40:54;;;;;;;6.77;3.20;;;6.70;98.30;;;;;;5154924;23;20451;-80
2021/03/12 08:42:59;;;;;;;5.73;2.60;;;6.70;98.30;;;;;;5146550;23;20932;-80
2021/03/12 08:45:01;;;;;;;9.97;3.17;;;6.90;98.30;;;;;;5153546;23;20448;-79
2021/03/12 08:47:03;;;;;;;8.70;3.40;;;7.00;98.30;;;;;;5153641;23;20459;-79
2021/03/12 08:49:08;;;;;;;8.63;2.90;;;6.90;98.30;;;;;;5145065;23;20511;-80
2021/03/12 08:51:16;;;;;;;7.03;3.03;;;6.90;98.30;;;;;;5154425;23;20441;-80
2021/03/12 08:53:19;;;;;;;6.03;3.00;;;6.90;98.30;;;;;;5156099;23;20455;-81
2021/03/12 08:55:21;;;;;;;4.77;2.90;;;7.00;98.30;;;;;;5148459;23;20812;-80
2021/03/12 08:57:23;;;;;;;4.73;2.50;;;7.10;98.30;;;;;;5155898;23;20458;-80
2021/03/12 08:59:27;;;;;;;11.57;3.50;;;7.20;98.30;;;;;;5155409;23;20524;-81
2021/03/12 09:01:31;;;;;;;7.70;3.93;;;7.20;98.30;;;;;;5155119;23;20455;-80
2021/03/12 09:03:34;;;;;;;8.93;2.90;;;7.30;98.30;;;;;;5154995;23;20472;-80
2021/03/12 09:05:37;;;;;;;4.97;2.73;;;7.20;98.30;;;;;;5155665;23;20441;-82
2021/03/12 09:07:54;;;;;;;7.00;2.77;;;7.00;98.30;;;;;;5155697;23;21097;-80
2021/03/12 09:09:56;;;;;;;5.60;4.17;;;7.00;98.30;;;;;;5147115;23;20467;-81
2021/03/12 09:12:00;;;;;;;6.37;3.07;;;6.90;98.30;;;;;;5154434;23;20469;-80
2021/03/12 09:14:02;;;;;;;6.93;3.60;;;7.00;98.30;;;;;;5156208;23;20470;-80
2021/03/12 09:16:07;;;;;;;5.73;3.13;;;7.00;98.30;;;;;;5156435;23;20420;-81
2021/03/12 09:18:17;;;;;;;7.87;3.80;;;7.10;98.30;;;;;;5154811;23;20536;-80
2021/03/12 09:20:22;;;;;;;11.00;3.70;;;7.10;98.30;;;;;;5155057;23;20436;-81
2021/03/12 09:22:24;;;;;;;8.07;3.20;;;7.10;98.30;;;;;;5154791;23;20811;-80
2021/03/12 09:24:28;;;;;;;6.67;3.83;;;7.20;98.30;;;;;;5154189;23;20455;-80
2021/03/12 09:26:31;;;;;;;8.00;3.63;;;7.20;98.30;;;;;;5155309;23;20407;-80
2021/03/12 09:28:35;;;;;;;9.27;3.60;;;7.30;98.30;;;;;;5155469;23;20942;-80
2021/03/12 09:30:39;;;;;;;7.70;3.60;;;7.40;98.30;;;;;;5143630;23;20491;-79
2021/03/12 09:32:41;;;;;;;13.93;5.00;;;7.40;98.30;;;;;;5153855;23;20434;-79
2021/03/12 09:34:43;;;;;;;12.10;4.73;;;7.40;98.30;;;;;;5155509;23;20415;-79
2021/03/12 09:36:46;;;;;;;9.17;3.63;;;7.70;98.30;;;;;;5147832;23;20448;-79
2021/03/12 09:38:49;;;;;;;5.80;2.97;;;7.90;98.30;;;;;;5147005;23;20927;-79
2021/03/12 09:40:52;;;;;;;4.10;3.20;;;7.80;98.30;;;;;;5153456;23;20536;-79
2021/03/12 09:42:54;;;;;;;4.10;2.90;;;7.60;98.30;;;;;;5147301;23;20987;-80
2021/03/12 09:44:56;;;;;;;8.40;3.03;;;7.50;98.30;;;;;;5147484;23;20898;-80
2021/03/12 09:46:59;;;;;;;5.63;2.87;;;7.50;98.30;;;;;;5154773;23;20835;-80
2021/03/12 09:49:11;;;;;;;8.40;3.33;;;7.70;98.30;;;;;;5156026;23;20481;-80
2021/03/12 09:51:13;;;;;;;7.33;4.47;;;7.80;98.30;;;;;;5158056;23;20951;-79
2021/03/12 09:53:20;;;;;;;5.70;3.10;;;7.70;98.30;;;;;;5153682;23;20436;-81
2021/03/12 09:56:01;;;;;;;7.63;3.33;;;7.70;98.30;;;;;;5145730;23;20428;-81
2021/03/12 10:21:49;;;;;;;10.57;3.40;;;7.80;98.30;;;;;;4257211;27;20606;-79
2021/03/12 10:24:00;;;;;;;6.80;3.43;;;7.90;98.30;;;;;;4254154;27;20470;-77
2021/03/12 10:26:05;;;;;;;5.87;3.30;;;7.80;98.30;;;;;;4255291;27;20478;-77
2021/03/12 10:28:11;;;;;;;7.43;3.20;;;7.80;98.30;;;;;;4257182;27;20462;-77
2021/03/12 10:30:16;;;;;;;7.87;3.90;;;7.80;98.30;;;;;;4256220;27;20479;-78
2021/03/12 10:32:17;;;;;;;11.20;3.80;;;7.90;98.30;;;;;;4253650;27;20458;-78
2021/03/12 10:34:44;;;;;;;7.50;3.67;;;7.90;98.30;;;;;;4255233;27;20462;-78
2021/03/12 10:36:47;;;;;;;9.23;4.00;;;7.80;98.30;;;;;;4252364;27;20467;-77
2021/03/12 10:39:08;;;;;;;12.70;4.40;;;7.80;98.30;;;;;;4258110;27;20483;-78
2021/03/12 10:41:17;;;;;;;6.43;3.30;;;7.80;98.30;;;;;;4252463;27;20510;-78
2021/03/12 10:43:20;;;;;;;7.13;3.70;;;7.80;98.30;;;;;;4253799;27;20458;-78
2021/03/12 10:45:27;;;;;;;6.63;3.07;;;7.80;98.30;;;;;;4252502;27;20491;-78
2021/03/12 10:47:29;;;;;;;10.50;4.67;;;7.80;98.30;;;;;;4248620;27;20494;-78
2021/03/12 10:49:31;;;;;;;5.00;3.30;;;7.70;98.30;;;;;;4256952;27;20487;-78
2021/03/12 10:51:40;;;;;;;10.10;4.60;;;7.80;98.30;;;;;;4252822;27;20467;-77
2021/03/12 10:53:47;;;;;;;8.77;4.10;;;7.70;98.30;;;;;;4253236;27;20839;-77
2021/03/12 10:55:51;;;;;;;10.03;4.60;;;7.80;98.30;;;;;;4251967;27;20516;-78
2021/03/12 10:57:58;;;;;;;9.37;4.30;;;7.80;98.30;;;;;;4257059;27;20461;-78
2021/03/12 11:00:00;;;;;;;13.77;4.33;;;7.80;98.30;;;;;;4252619;27;20992;-77
2021/03/12 11:02:11;;;;;;;7.07;3.90;;;7.80;98.30;;;;;;4256733;27;20499;-78
2021/03/12 11:04:18;;;;;;;8.00;4.00;;;8.00;98.30;;;;;;4255416;27;20560;-78
2021/03/12 11:06:22;;;;;;;6.37;3.50;;;8.20;98.30;;;;;;4256474;27;20589;-78
2021/03/12 11:08:26;;;;;;;8.13;3.87;;;8.10;98.30;;;;;;4255817;27;20986;-77
2021/03/12 11:10:29;;;;;;;13.73;4.57;;;8.00;98.30;;;;;;4253290;27;20467;-77
2021/03/12 11:12:42;;;;;;;6.40;4.00;;;8.10;98.30;;;;;;4254725;27;20485;-79
2021/03/12 11:14:44;;;;;;;9.60;4.07;;;8.10;98.30;;;;;;4257044;27;20491;-79
2021/03/12 11:16:48;;;;;;;10.37;4.10;;;8.00;98.30;;;;;;4251612;27;20579;-78
2021/03/12 11:18:50;;;;;;;4.97;3.50;;;8.10;98.30;;;;;;4251985;27;20476;-78